Itamarandiba, Brazil
Current Conditions -  °F | °C
As of 7:00 PM on Saturday 25 Oct 2014 (Local Time) from SBMK Reporting Station
Clear Clear  
Wind Chill: 86°   Ceiling: Unl
Heat Index: 86°   Visibility: 6mi
Dew Point: 45°   Wind: 7mph
Humidity: 23%   Direction: 80°E
Pressure: 29.88"   Gusts: NA
Location:  17.85°S, 42.85°W
Report Text: SBMK 252100Z 08006KT CAVOK 30/07 Q1012
Loading
Personal Weather Stations






























Interactive Weather Map
Tropical Storm Tracking
New forecast layout! Learn more

10-Day Weather Forecast

Advertisements
Track Severe Weather on mobile